PGT7QZ LTFJ-EHRD
Flight info
| Callsign | PGT7QZ |
|---|---|
| Flight time | N/A |
| Altitude | 34000 |
| Route | TUDBU DCT OVDOT DCT FAHAZ/N0449F360 DCT BEGLA DCT DITIS DCT VARIK DCT KATCE DCT HMM L602 RKN |
| Aircraft | A320/M-SDE3FGHIRWY/LB1 |
Departure
| Time | 2026-05-06 10:09 |
|---|---|
| Airport | Istanbul Sabiha Gökçen International Airport (LTFJ) |
Arrival
| Time | N/A |
|---|---|
| Airport | Rotterdam The Hague Airport (EHRD) |
| Time | Latitude | Longitude | Altitude | Speed | Heading |
|---|---|---|---|---|---|
| 2026-05-06 09:36 | 40.90334 | 29.30905 | 310 ft | 0 kts | 334° |
| 2026-05-06 09:55 | 40.90331 | 29.30907 | 311 ft | 3 kts | 334° |
| 2026-05-06 09:55 | 40.90307 | 29.30922 | 311 ft | 4 kts | 334° |
| 2026-05-06 09:56 | 40.90283 | 29.30936 | 311 ft | 4 kts | 339° |
| 2026-05-06 09:56 | 40.90257 | 29.30947 | 310 ft | 4 kts | 346° |
| 2026-05-06 09:56 | 40.90245 | 29.30951 | 311 ft | 1 kts | 347° |
| 2026-05-06 09:59 | 40.90256 | 29.30938 | 311 ft | 2 kts | 298° |
| 2026-05-06 09:59 | 40.90258 | 29.30926 | 311 ft | 2 kts | 285° |
| 2026-05-06 10:00 | 40.90246 | 29.30889 | 311 ft | 5 kts | 234° |
| 2026-05-06 10:00 | 40.90214 | 29.30874 | 309 ft | 7 kts | 173° |
| 2026-05-06 10:00 | 40.90161 | 29.30906 | 310 ft | 10 kts | 154° |
| 2026-05-06 10:00 | 40.90086 | 29.30953 | 311 ft | 13 kts | 154° |
| 2026-05-06 10:01 | 40.90003 | 29.31007 | 311 ft | 14 kts | 154° |
| 2026-05-06 10:01 | 40.89914 | 29.31057 | 311 ft | 14 kts | 162° |
| 2026-05-06 10:01 | 40.89817 | 29.31101 | 310 ft | 15 kts | 152° |
| 2026-05-06 10:01 | 40.89722 | 29.31172 | 311 ft | 16 kts | 150° |
| 2026-05-06 10:02 | 40.89626 | 29.31244 | 311 ft | 16 kts | 150° |
| 2026-05-06 10:02 | 40.89521 | 29.31321 | 308 ft | 19 kts | 152° |
| 2026-05-06 10:02 | 40.89393 | 29.31404 | 303 ft | 22 kts | 154° |
| 2026-05-06 10:02 | 40.89283 | 29.31476 | 301 ft | 11 kts | 148° |
| 2026-05-06 10:03 | 40.89281 | 29.31560 | 304 ft | 9 kts | 64° |
| 2026-05-06 10:03 | 40.89305 | 29.31626 | 301 ft | 7 kts | 64° |
| 2026-05-06 10:03 | 40.89323 | 29.31675 | 301 ft | 5 kts | 64° |
| 2026-05-06 10:03 | 40.89343 | 29.31731 | 301 ft | 10 kts | 66° |
| 2026-05-06 10:04 | 40.89379 | 29.31830 | 302 ft | 14 kts | 65° |
| 2026-05-06 10:04 | 40.89367 | 29.31954 | 304 ft | 17 kts | 146° |
| 2026-05-06 10:04 | 40.89375 | 29.32109 | 303 ft | 20 kts | 65° |
| 2026-05-06 10:04 | 40.89438 | 29.32280 | 305 ft | 21 kts | 64° |
| 2026-05-06 10:05 | 40.89504 | 29.32457 | 302 ft | 22 kts | 64° |
| 2026-05-06 10:05 | 40.89573 | 29.32647 | 302 ft | 24 kts | 64° |
| 2026-05-06 10:05 | 40.89643 | 29.32836 | 299 ft | 21 kts | 64° |
| 2026-05-06 10:05 | 40.89713 | 29.33027 | 294 ft | 23 kts | 64° |
| 2026-05-06 10:06 | 40.89777 | 29.33201 | 288 ft | 22 kts | 64° |
| 2026-05-06 10:06 | 40.89841 | 29.33376 | 293 ft | 20 kts | 64° |
| 2026-05-06 10:06 | 40.89895 | 29.33524 | 300 ft | 15 kts | 64° |
| 2026-05-06 10:06 | 40.89932 | 29.33625 | 304 ft | 10 kts | 63° |
| 2026-05-06 10:07 | 40.89956 | 29.33692 | 310 ft | 7 kts | 64° |
| 2026-05-06 10:07 | 40.89991 | 29.33792 | 314 ft | 17 kts | 66° |
| 2026-05-06 10:07 | 40.90003 | 29.33911 | 317 ft | 12 kts | 130° |
| 2026-05-06 10:07 | 40.89924 | 29.33968 | 318 ft | 13 kts | 154° |
| 2026-05-06 10:08 | 40.89846 | 29.33954 | 315 ft | 15 kts | 241° |
| 2026-05-06 10:08 | 40.89782 | 29.33779 | 302 ft | 38 kts | 244° |
| 2026-05-06 10:08 | 40.89550 | 29.33162 | 294 ft | 107 kts | 245° |
| 2026-05-06 10:08 | 40.89141 | 29.32066 | 302 ft | 157 kts | 243° |
| 2026-05-06 10:09 | 40.88635 | 29.30691 | 733 ft | 168 kts | 243° |
| 2026-05-06 10:09 | 40.88071 | 29.29353 | 1446 ft | 166 kts | 224° |
| 2026-05-06 10:09 | 40.87072 | 29.28602 | 2120 ft | 169 kts | 204° |
| 2026-05-06 10:09 | 40.85950 | 29.27940 | 2476 ft | 189 kts | 208° |
| 2026-05-06 10:10 | 40.84756 | 29.26990 | 2692 ft | 213 kts | 214° |
| 2026-05-06 10:10 | 40.83461 | 29.25840 | 3024 ft | 237 kts | 214° |
| 2026-05-06 10:10 | 40.82057 | 29.24567 | 3553 ft | 250 kts | 215° |
| 2026-05-06 10:10 | 40.80609 | 29.23257 | 4312 ft | 254 kts | 215° |
| 2026-05-06 10:11 | 40.79141 | 29.21942 | 5085 ft | 257 kts | 214° |
| 2026-05-06 10:11 | 40.77645 | 29.20618 | 5870 ft | 261 kts | 216° |
| 2026-05-06 10:11 | 40.76306 | 29.19005 | 6595 ft | 263 kts | 232° |
| 2026-05-06 10:11 | 40.75321 | 29.16914 | 7150 ft | 274 kts | 246° |
| 2026-05-06 10:12 | 40.74513 | 29.14648 | 7853 ft | 279 kts | 245° |
| 2026-05-06 10:12 | 40.73672 | 29.12323 | 8578 ft | 283 kts | 245° |
| 2026-05-06 10:12 | 40.72815 | 29.09974 | 9295 ft | 287 kts | 245° |
| 2026-05-06 10:12 | 40.71942 | 29.07591 | 9999 ft | 290 kts | 245° |
| 2026-05-06 10:13 | 40.71048 | 29.05150 | 10438 ft | 306 kts | 246° |
| 2026-05-06 10:13 | 40.70091 | 29.02535 | 10594 ft | 329 kts | 246° |
| 2026-05-06 10:13 | 40.69087 | 28.99795 | 11006 ft | 341 kts | 246° |
| 2026-05-06 10:13 | 40.68049 | 28.96963 | 11634 ft | 346 kts | 247° |
| 2026-05-06 10:14 | 40.67228 | 28.93986 | 12246 ft | 347 kts | 259° |
| 2026-05-06 10:14 | 40.66893 | 28.90842 | 12864 ft | 347 kts | 271° |
| 2026-05-06 10:14 | 40.66964 | 28.87656 | 13487 ft | 349 kts | 275° |
| 2026-05-06 10:14 | 40.67071 | 28.84456 | 14103 ft | 352 kts | 275° |
| 2026-05-06 10:15 | 40.67173 | 28.81228 | 14709 ft | 354 kts | 275° |
| 2026-05-06 10:15 | 40.67272 | 28.77973 | 15316 ft | 357 kts | 275° |
| 2026-05-06 10:15 | 40.67368 | 28.74742 | 15869 ft | 359 kts | 275° |
| 2026-05-06 10:15 | 40.67463 | 28.71436 | 16435 ft | 362 kts | 275° |
| 2026-05-06 10:16 | 40.67557 | 28.68116 | 16987 ft | 365 kts | 275° |
| 2026-05-06 10:16 | 40.67755 | 28.64796 | 17524 ft | 364 kts | 284° |
| 2026-05-06 10:16 | 40.68508 | 28.61613 | 18044 ft | 363 kts | 297° |
| 2026-05-06 10:16 | 40.69818 | 28.58795 | 18537 ft | 361 kts | 311° |
| 2026-05-06 10:17 | 40.71615 | 28.56484 | 19026 ft | 362 kts | 324° |
| 2026-05-06 10:17 | 40.73788 | 28.54804 | 19519 ft | 364 kts | 336° |
| 2026-05-06 10:17 | 40.76107 | 28.53446 | 19986 ft | 366 kts | 336° |
| 2026-05-06 10:17 | 40.78410 | 28.52097 | 20438 ft | 369 kts | 336° |
| 2026-05-06 10:18 | 40.80766 | 28.50716 | 20888 ft | 371 kts | 336° |
| 2026-05-06 10:18 | 40.83062 | 28.49137 | 21319 ft | 374 kts | 327° |
| 2026-05-06 10:18 | 40.85119 | 28.47011 | 21724 ft | 378 kts | 317° |
| 2026-05-06 10:18 | 40.86953 | 28.44498 | 22135 ft | 381 kts | 314° |
| 2026-05-06 10:19 | 40.88784 | 28.41952 | 22529 ft | 384 kts | 314° |
| 2026-05-06 10:19 | 40.90631 | 28.39387 | 22932 ft | 386 kts | 314° |
| 2026-05-06 10:19 | 40.92487 | 28.36811 | 23312 ft | 388 kts | 314° |
| 2026-05-06 10:19 | 40.94331 | 28.34257 | 23685 ft | 390 kts | 314° |
| 2026-05-06 10:20 | 40.96210 | 28.31653 | 24051 ft | 393 kts | 314° |
| 2026-05-06 10:20 | 40.98103 | 28.29028 | 24416 ft | 395 kts | 314° |
| 2026-05-06 10:20 | 41.00002 | 28.26391 | 24773 ft | 397 kts | 314° |
| 2026-05-06 10:20 | 41.01910 | 28.23733 | 25112 ft | 399 kts | 314° |
| 2026-05-06 10:21 | 41.03824 | 28.21066 | 25452 ft | 401 kts | 314° |
| 2026-05-06 10:21 | 41.05749 | 28.18385 | 25781 ft | 402 kts | 314° |
| 2026-05-06 10:21 | 41.07684 | 28.15690 | 26092 ft | 404 kts | 314° |
| 2026-05-06 10:21 | 41.09626 | 28.12983 | 26406 ft | 406 kts | 314° |
| 2026-05-06 10:22 | 41.11575 | 28.10261 | 26721 ft | 408 kts | 314° |
| 2026-05-06 10:22 | 41.13507 | 28.07560 | 27024 ft | 410 kts | 314° |
| 2026-05-06 10:22 | 41.15478 | 28.04802 | 27315 ft | 412 kts | 314° |
| 2026-05-06 10:22 | 41.17454 | 28.02033 | 27609 ft | 414 kts | 314° |
| 2026-05-06 10:23 | 41.19438 | 27.99248 | 27902 ft | 416 kts | 314° |
| 2026-05-06 10:23 | 41.21429 | 27.96450 | 28200 ft | 418 kts | 314° |
| 2026-05-06 10:23 | 41.23427 | 27.93643 | 28495 ft | 419 kts | 314° |
| 2026-05-06 10:23 | 41.25439 | 27.90827 | 28764 ft | 420 kts | 316° |
| 2026-05-06 10:24 | 41.27668 | 27.88311 | 29033 ft | 421 kts | 325° |
| 2026-05-06 10:24 | 41.30155 | 27.86361 | 29285 ft | 423 kts | 335° |
| 2026-05-06 10:24 | 41.32911 | 27.84978 | 29526 ft | 425 kts | 344° |
| 2026-05-06 10:24 | 41.35777 | 27.83973 | 29755 ft | 427 kts | 345° |
| 2026-05-06 10:25 | 41.38650 | 27.82964 | 29975 ft | 428 kts | 345° |
| 2026-05-06 10:25 | 41.41539 | 27.81944 | 30196 ft | 430 kts | 344° |
| 2026-05-06 10:25 | 41.44444 | 27.80989 | 30412 ft | 432 kts | 349° |
| 2026-05-06 10:25 | 41.47436 | 27.80547 | 30644 ft | 434 kts | 356° |
| 2026-05-06 10:26 | 41.50447 | 27.80378 | 30962 ft | 432 kts | 356° |
| 2026-05-06 10:26 | 41.53405 | 27.80211 | 31268 ft | 431 kts | 356° |
| 2026-05-06 10:26 | 41.56399 | 27.80038 | 31583 ft | 430 kts | 356° |
| 2026-05-06 10:26 | 41.59390 | 27.79863 | 31878 ft | 429 kts | 356° |
| 2026-05-06 10:27 | 41.62369 | 27.79686 | 32167 ft | 429 kts | 356° |
| 2026-05-06 10:27 | 41.65350 | 27.79508 | 32454 ft | 428 kts | 356° |
| 2026-05-06 10:27 | 41.68318 | 27.79336 | 32750 ft | 427 kts | 356° |
| 2026-05-06 10:27 | 41.71288 | 27.79165 | 33021 ft | 426 kts | 356° |
| 2026-05-06 10:28 | 41.74245 | 27.78996 | 33301 ft | 426 kts | 356° |
| 2026-05-06 10:28 | 41.77164 | 27.78828 | 33576 ft | 425 kts | 356° |
| 2026-05-06 10:28 | 41.80117 | 27.78655 | 33847 ft | 424 kts | 356° |
| 2026-05-06 10:28 | 41.83065 | 27.78482 | 34058 ft | 424 kts | 356° |
| 2026-05-06 10:29 | 41.88900 | 27.78137 | 34110 ft | 417 kts | 356° |
| 2026-05-06 10:29 | 41.94539 | 27.76733 | 34110 ft | 413 kts | 337° |
| 2026-05-06 10:30 | 41.99333 | 27.72672 | 34109 ft | 413 kts | 316° |
| 2026-05-06 10:30 | 42.03010 | 27.66730 | 34109 ft | 415 kts | 309° |
| 2026-05-06 10:31 | 42.06555 | 27.60593 | 34110 ft | 415 kts | 309° |
| 2026-05-06 10:31 | 42.10097 | 27.54454 | 34112 ft | 415 kts | 309° |
| 2026-05-06 10:32 | 42.13618 | 27.48345 | 34112 ft | 416 kts | 309° |
| 2026-05-06 10:32 | 42.17154 | 27.42183 | 34114 ft | 415 kts | 309° |
| 2026-05-06 10:33 | 42.20680 | 27.36029 | 34114 ft | 415 kts | 309° |
| 2026-05-06 10:33 | 42.24198 | 27.29869 | 34115 ft | 414 kts | 309° |
| 2026-05-06 10:34 | 42.27689 | 27.23748 | 34112 ft | 414 kts | 309° |
| 2026-05-06 10:34 | 42.31191 | 27.17591 | 34112 ft | 413 kts | 309° |
| 2026-05-06 10:35 | 42.34689 | 27.11433 | 34109 ft | 413 kts | 309° |
| 2026-05-06 10:35 | 42.38185 | 27.05281 | 34110 ft | 412 kts | 309° |
| 2026-05-06 10:36 | 42.41650 | 26.99165 | 34107 ft | 412 kts | 309° |
| 2026-05-06 10:36 | 42.45130 | 26.93010 | 34108 ft | 411 kts | 309° |
| 2026-05-06 10:37 | 42.48599 | 26.86846 | 34105 ft | 411 kts | 309° |
| 2026-05-06 10:37 | 42.52056 | 26.80690 | 34103 ft | 410 kts | 309° |
| 2026-05-06 10:38 | 42.55514 | 26.74529 | 34099 ft | 410 kts | 309° |
| 2026-05-06 10:38 | 42.58936 | 26.68420 | 34089 ft | 409 kts | 309° |
| 2026-05-06 10:39 | 42.62378 | 26.62261 | 34084 ft | 409 kts | 309° |
| 2026-05-06 10:39 | 42.65809 | 26.56108 | 34081 ft | 409 kts | 309° |
| 2026-05-06 10:40 | 42.69241 | 26.49942 | 34083 ft | 409 kts | 309° |
| 2026-05-06 10:40 | 42.72645 | 26.43817 | 34082 ft | 409 kts | 309° |
| 2026-05-06 10:41 | 42.76068 | 26.37641 | 34074 ft | 408 kts | 309° |
| 2026-05-06 10:41 | 42.79489 | 26.31470 | 34071 ft | 408 kts | 309° |
| 2026-05-06 10:42 | 42.82904 | 26.25289 | 34060 ft | 408 kts | 309° |
| 2026-05-06 10:42 | 42.86310 | 26.19105 | 34055 ft | 408 kts | 308° |
| 2026-05-06 10:43 | 42.89692 | 26.12949 | 34048 ft | 408 kts | 308° |
| 2026-05-06 10:44 | 42.94791 | 26.03647 | 34033 ft | 408 kts | 308° |
| 2026-05-06 10:44 | 42.98190 | 25.97442 | 34038 ft | 408 kts | 309° |
| 2026-05-06 10:45 | 43.01559 | 25.91269 | 34051 ft | 407 kts | 309° |
| 2026-05-06 10:45 | 43.04941 | 25.85063 | 34052 ft | 407 kts | 308° |
| 2026-05-06 10:46 | 43.08313 | 25.78856 | 34047 ft | 406 kts | 308° |
| 2026-05-06 10:46 | 43.11674 | 25.72648 | 34033 ft | 406 kts | 308° |
| 2026-05-06 10:47 | 43.15016 | 25.66478 | 34028 ft | 406 kts | 308° |
| 2026-05-06 10:47 | 43.18373 | 25.60267 | 34034 ft | 406 kts | 308° |
| 2026-05-06 10:48 | 43.21723 | 25.54047 | 34021 ft | 405 kts | 308° |
| 2026-05-06 10:48 | 43.25066 | 25.47822 | 34025 ft | 406 kts | 308° |
| 2026-05-06 10:49 | 43.28415 | 25.41589 | 34032 ft | 405 kts | 308° |
| 2026-05-06 10:49 | 43.31735 | 25.35391 | 34021 ft | 405 kts | 308° |
| 2026-05-06 10:50 | 43.35069 | 25.29150 | 34032 ft | 405 kts | 308° |
| 2026-05-06 10:50 | 43.38400 | 25.22914 | 34031 ft | 405 kts | 308° |
| 2026-05-06 10:51 | 43.41166 | 25.17721 | 34034 ft | 405 kts | 308° |
| 2026-05-06 10:51 | 43.44492 | 25.11468 | 34034 ft | 405 kts | 308° |
| 2026-05-06 10:52 | 43.48347 | 25.04198 | 34039 ft | 404 kts | 308° |
| 2026-05-06 10:52 | 43.51093 | 24.98990 | 34046 ft | 404 kts | 308° |
| 2026-05-06 10:53 | 43.54395 | 24.92719 | 34034 ft | 404 kts | 308° |
| 2026-05-06 10:53 | 43.57699 | 24.86456 | 34038 ft | 404 kts | 308° |
| 2026-05-06 10:54 | 43.60995 | 24.80192 | 34045 ft | 403 kts | 308° |
| 2026-05-06 10:54 | 43.64280 | 24.73927 | 34045 ft | 403 kts | 308° |
| 2026-05-06 10:55 | 43.67538 | 24.67707 | 34046 ft | 402 kts | 308° |
| 2026-05-06 10:55 | 43.70812 | 24.61437 | 34032 ft | 402 kts | 308° |
| 2026-05-06 10:56 | 43.74081 | 24.55169 | 34034 ft | 402 kts | 308° |
| 2026-05-06 10:56 | 43.77340 | 24.48900 | 34031 ft | 401 kts | 308° |
| 2026-05-06 10:57 | 43.80569 | 24.42664 | 34038 ft | 401 kts | 308° |
| 2026-05-06 10:57 | 43.83818 | 24.36387 | 34037 ft | 401 kts | 308° |
| 2026-05-06 10:58 | 43.87061 | 24.30113 | 34036 ft | 400 kts | 308° |
| 2026-05-06 10:58 | 43.90300 | 24.23843 | 34034 ft | 400 kts | 308° |
| 2026-05-06 10:59 | 43.93535 | 24.17560 | 34032 ft | 400 kts | 307° |
| 2026-05-06 10:59 | 43.96762 | 24.11268 | 34038 ft | 400 kts | 307° |
| 2026-05-06 11:00 | 43.99971 | 24.05015 | 34033 ft | 400 kts | 307° |
| 2026-05-06 11:00 | 44.03192 | 23.98715 | 34037 ft | 400 kts | 307° |
| 2026-05-06 11:01 | 44.06401 | 23.92400 | 34034 ft | 400 kts | 307° |
| 2026-05-06 11:01 | 44.09619 | 23.86084 | 34031 ft | 400 kts | 307° |
| 2026-05-06 11:02 | 44.12827 | 23.79767 | 34030 ft | 400 kts | 307° |
| 2026-05-06 11:02 | 44.16016 | 23.73474 | 34032 ft | 400 kts | 307° |
| 2026-05-06 11:03 | 44.19226 | 23.67136 | 34034 ft | 400 kts | 307° |
| 2026-05-06 11:03 | 44.22426 | 23.60793 | 34034 ft | 400 kts | 307° |
| 2026-05-06 11:04 | 44.25619 | 23.54454 | 34028 ft | 399 kts | 307° |
| 2026-05-06 11:04 | 44.28783 | 23.48152 | 34014 ft | 399 kts | 307° |
| 2026-05-06 11:05 | 44.31964 | 23.41798 | 34016 ft | 400 kts | 307° |
| 2026-05-06 11:05 | 44.35147 | 23.35430 | 34014 ft | 400 kts | 307° |
| 2026-05-06 11:06 | 44.38327 | 23.29060 | 34013 ft | 399 kts | 307° |
| 2026-05-06 11:06 | 44.41482 | 23.22733 | 34017 ft | 399 kts | 307° |
| 2026-05-06 11:07 | 44.44651 | 23.16371 | 34021 ft | 399 kts | 306° |
| 2026-05-06 11:07 | 44.47813 | 23.09997 | 34018 ft | 399 kts | 306° |
| 2026-05-06 11:08 | 44.50971 | 23.03616 | 34015 ft | 399 kts | 306° |
| 2026-05-06 11:08 | 44.54168 | 22.97270 | 34020 ft | 398 kts | 311° |
| 2026-05-06 11:09 | 44.57866 | 22.91491 | 34022 ft | 397 kts | 313° |
| 2026-05-06 11:09 | 44.61527 | 22.85762 | 34024 ft | 397 kts | 313° |
| 2026-05-06 11:10 | 44.65204 | 22.79987 | 34018 ft | 396 kts | 313° |
| 2026-05-06 11:10 | 44.68877 | 22.74214 | 34017 ft | 396 kts | 312° |
| 2026-05-06 11:11 | 44.72551 | 22.68435 | 34010 ft | 396 kts | 312° |
| 2026-05-06 11:11 | 44.76196 | 22.62696 | 34009 ft | 396 kts | 312° |
| 2026-05-06 11:12 | 44.79854 | 22.56913 | 34014 ft | 396 kts | 312° |
| 2026-05-06 11:12 | 44.83511 | 22.51122 | 34008 ft | 396 kts | 312° |
| 2026-05-06 11:13 | 44.87165 | 22.45322 | 34010 ft | 396 kts | 312° |
| 2026-05-06 11:13 | 44.90817 | 22.39513 | 34004 ft | 396 kts | 312° |
| 2026-05-06 11:14 | 44.94441 | 22.33733 | 34005 ft | 396 kts | 312° |
| 2026-05-06 11:14 | 44.98085 | 22.27918 | 34001 ft | 395 kts | 312° |
| 2026-05-06 11:15 | 45.01730 | 22.22111 | 34001 ft | 395 kts | 312° |
| 2026-05-06 11:15 | 45.05368 | 22.16273 | 33999 ft | 396 kts | 311° |
| 2026-05-06 11:16 | 45.08970 | 22.10454 | 33996 ft | 396 kts | 311° |
| 2026-05-06 11:16 | 45.12602 | 22.04597 | 33994 ft | 396 kts | 311° |
| 2026-05-06 11:17 | 45.16240 | 21.98732 | 33995 ft | 396 kts | 311° |
| 2026-05-06 11:17 | 45.19872 | 21.92858 | 33996 ft | 396 kts | 311° |
| 2026-05-06 11:18 | 45.23478 | 21.87019 | 33996 ft | 396 kts | 311° |
| 2026-05-06 11:18 | 45.27112 | 21.81121 | 33992 ft | 396 kts | 311° |
| 2026-05-06 11:19 | 45.30735 | 21.75223 | 33991 ft | 396 kts | 311° |
| 2026-05-06 11:19 | 45.34356 | 21.69316 | 33989 ft | 397 kts | 311° |
| 2026-05-06 11:20 | 45.37985 | 21.63395 | 33986 ft | 397 kts | 311° |
| 2026-05-06 11:20 | 45.41579 | 21.57508 | 33988 ft | 397 kts | 311° |
| 2026-05-06 11:21 | 45.45195 | 21.51561 | 33989 ft | 397 kts | 310° |
| 2026-05-06 11:21 | 45.48814 | 21.45604 | 33989 ft | 397 kts | 310° |
| 2026-05-06 11:22 | 45.52428 | 21.39650 | 33991 ft | 397 kts | 310° |
| 2026-05-06 11:22 | 45.56037 | 21.33683 | 33988 ft | 398 kts | 310° |
| 2026-05-06 11:23 | 45.59626 | 21.27742 | 33986 ft | 398 kts | 310° |
| 2026-05-06 11:23 | 45.63234 | 21.21759 | 33984 ft | 398 kts | 310° |
| 2026-05-06 11:24 | 45.66841 | 21.15761 | 33985 ft | 398 kts | 310° |
| 2026-05-06 11:24 | 45.70422 | 21.09799 | 33986 ft | 398 kts | 310° |
| 2026-05-06 11:25 | 45.74022 | 21.03784 | 33986 ft | 398 kts | 310° |
| 2026-05-06 11:25 | 45.77622 | 20.97767 | 33985 ft | 398 kts | 310° |
| 2026-05-06 11:26 | 45.81224 | 20.91746 | 33986 ft | 398 kts | 309° |
| 2026-05-06 11:26 | 45.84796 | 20.85745 | 33985 ft | 398 kts | 309° |
| 2026-05-06 11:27 | 45.88380 | 20.79690 | 33984 ft | 398 kts | 309° |
| 2026-05-06 11:27 | 45.91963 | 20.73632 | 33985 ft | 398 kts | 309° |
| 2026-05-06 11:28 | 45.95548 | 20.67571 | 33992 ft | 400 kts | 309° |
| 2026-05-06 11:28 | 45.97354 | 20.64510 | 34123 ft | 403 kts | 309° |
| 2026-05-06 11:28 | 45.99149 | 20.61461 | 34326 ft | 405 kts | 308° |
| 2026-05-06 11:28 | 46.00966 | 20.58370 | 34552 ft | 405 kts | 308° |
| 2026-05-06 11:29 | 46.02788 | 20.55277 | 34761 ft | 406 kts | 308° |
| 2026-05-06 11:29 | 46.04614 | 20.52175 | 34976 ft | 406 kts | 308° |
| 2026-05-06 11:29 | 46.06438 | 20.49074 | 35197 ft | 406 kts | 308° |
| 2026-05-06 11:29 | 46.08256 | 20.45971 | 35413 ft | 406 kts | 308° |
| 2026-05-06 11:30 | 46.10073 | 20.42863 | 35631 ft | 406 kts | 308° |
| 2026-05-06 11:30 | 46.11892 | 20.39747 | 35838 ft | 405 kts | 308° |
| 2026-05-06 11:30 | 46.13683 | 20.36683 | 35971 ft | 405 kts | 308° |
| 2026-05-06 11:31 | 46.17312 | 20.30474 | 36002 ft | 404 kts | 308° |
| 2026-05-06 11:31 | 46.20928 | 20.24261 | 36000 ft | 404 kts | 308° |
| 2026-05-06 11:32 | 46.24543 | 20.18041 | 35979 ft | 404 kts | 307° |
| 2026-05-06 11:32 | 46.28155 | 20.11806 | 35971 ft | 404 kts | 307° |
| 2026-05-06 11:33 | 46.31736 | 20.05615 | 35970 ft | 404 kts | 307° |
| 2026-05-06 11:33 | 46.35334 | 19.99362 | 35968 ft | 404 kts | 307° |
| 2026-05-06 11:34 | 46.38931 | 19.93113 | 35967 ft | 404 kts | 307° |
| 2026-05-06 11:34 | 46.42515 | 19.86885 | 35966 ft | 405 kts | 307° |
| 2026-05-06 11:35 | 46.46114 | 19.80609 | 35967 ft | 405 kts | 307° |
| 2026-05-06 11:35 | 46.49707 | 19.74311 | 35967 ft | 405 kts | 307° |
| 2026-05-06 11:36 | 46.53298 | 19.67999 | 35966 ft | 406 kts | 307° |
| 2026-05-06 11:36 | 46.56871 | 19.61721 | 35961 ft | 406 kts | 307° |
| 2026-05-06 11:37 | 46.60468 | 19.55385 | 35958 ft | 407 kts | 307° |
| 2026-05-06 11:37 | 46.64065 | 19.49036 | 35953 ft | 407 kts | 307° |
| 2026-05-06 11:38 | 46.67668 | 19.42665 | 35948 ft | 408 kts | 306° |
| 2026-05-06 11:38 | 46.71240 | 19.36319 | 35946 ft | 408 kts | 306° |
| 2026-05-06 11:39 | 46.74840 | 19.29918 | 35945 ft | 408 kts | 306° |
| 2026-05-06 11:39 | 46.78445 | 19.23501 | 35943 ft | 409 kts | 306° |
| 2026-05-06 11:40 | 46.82046 | 19.17074 | 35939 ft | 409 kts | 306° |
| 2026-05-06 11:40 | 46.85626 | 19.10666 | 35935 ft | 410 kts | 306° |
| 2026-05-06 11:41 | 46.89222 | 19.04192 | 35934 ft | 410 kts | 305° |
| 2026-05-06 11:41 | 46.92666 | 18.97533 | 35933 ft | 410 kts | 303° |
| 2026-05-06 11:42 | 46.95996 | 18.90762 | 35933 ft | 410 kts | 302° |
| 2026-05-06 11:42 | 46.99345 | 18.83983 | 35931 ft | 411 kts | 303° |
| 2026-05-06 11:43 | 47.02700 | 18.77256 | 35932 ft | 412 kts | 303° |
| 2026-05-06 11:43 | 47.06091 | 18.70479 | 35934 ft | 412 kts | 303° |
| 2026-05-06 11:44 | 47.11161 | 18.60287 | 35939 ft | 412 kts | 302° |
| 2026-05-06 11:44 | 47.14532 | 18.53477 | 35937 ft | 412 kts | 302° |
| 2026-05-06 11:45 | 47.17883 | 18.46703 | 35934 ft | 412 kts | 302° |
| 2026-05-06 11:45 | 47.21252 | 18.39878 | 35932 ft | 413 kts | 302° |
| 2026-05-06 11:46 | 47.24627 | 18.33036 | 35926 ft | 413 kts | 302° |
| 2026-05-06 11:46 | 47.27998 | 18.26175 | 35924 ft | 413 kts | 302° |
| 2026-05-06 11:47 | 47.31338 | 18.19348 | 35920 ft | 414 kts | 302° |
| 2026-05-06 11:47 | 47.34706 | 18.12457 | 35913 ft | 414 kts | 302° |
| 2026-05-06 11:48 | 47.38069 | 18.05556 | 35909 ft | 415 kts | 302° |
| 2026-05-06 11:48 | 47.41430 | 17.98627 | 35905 ft | 415 kts | 302° |
| 2026-05-06 11:49 | 47.44772 | 17.91730 | 35900 ft | 416 kts | 301° |
| 2026-05-06 11:49 | 47.48139 | 17.84778 | 35897 ft | 416 kts | 301° |
| 2026-05-06 11:50 | 47.51503 | 17.77803 | 35897 ft | 417 kts | 301° |
| 2026-05-06 11:50 | 47.54863 | 17.70806 | 35897 ft | 417 kts | 301° |
| 2026-05-06 11:51 | 47.58195 | 17.63854 | 35898 ft | 417 kts | 301° |
| 2026-05-06 11:51 | 47.61553 | 17.56842 | 35899 ft | 417 kts | 301° |
| 2026-05-06 11:52 | 47.64911 | 17.49818 | 35898 ft | 417 kts | 301° |
| 2026-05-06 11:52 | 47.68261 | 17.42786 | 35897 ft | 418 kts | 301° |
| 2026-05-06 11:53 | 47.71612 | 17.35736 | 35898 ft | 418 kts | 301° |
| 2026-05-06 11:53 | 47.74932 | 17.28727 | 35895 ft | 418 kts | 301° |
| 2026-05-06 11:54 | 47.78271 | 17.21666 | 35888 ft | 418 kts | 301° |
| 2026-05-06 11:54 | 47.81603 | 17.14588 | 35885 ft | 418 kts | 301° |
| 2026-05-06 11:55 | 47.85025 | 17.07577 | 35870 ft | 420 kts | 304° |
| 2026-05-06 11:55 | 47.88740 | 17.00916 | 35876 ft | 422 kts | 306° |
| 2026-05-06 11:56 | 47.92540 | 16.94285 | 35859 ft | 422 kts | 306° |
| 2026-05-06 11:56 | 47.96292 | 16.87562 | 35862 ft | 422 kts | 305° |
| 2026-05-06 11:57 | 47.99998 | 16.80773 | 35855 ft | 422 kts | 304° |
| 2026-05-06 11:57 | 48.03708 | 16.73958 | 35843 ft | 423 kts | 304° |
| 2026-05-06 11:58 | 48.07408 | 16.67172 | 35840 ft | 424 kts | 304° |
| 2026-05-06 11:58 | 48.11145 | 16.60318 | 35840 ft | 425 kts | 304° |
| 2026-05-06 11:59 | 48.14882 | 16.53448 | 35839 ft | 426 kts | 304° |
| 2026-05-06 11:59 | 48.18620 | 16.46549 | 35836 ft | 427 kts | 304° |
| 2026-05-06 12:00 | 48.22332 | 16.39673 | 35840 ft | 427 kts | 304° |
| 2026-05-06 12:00 | 48.26061 | 16.32748 | 35839 ft | 427 kts | 304° |
| 2026-05-06 12:01 | 48.29797 | 16.25798 | 35845 ft | 427 kts | 304° |
| 2026-05-06 12:01 | 48.33529 | 16.18843 | 35852 ft | 427 kts | 304° |
| 2026-05-06 12:02 | 48.37214 | 16.11942 | 35853 ft | 427 kts | 304° |
| 2026-05-06 12:02 | 48.40926 | 16.04975 | 35843 ft | 428 kts | 304° |
| 2026-05-06 12:03 | 48.44650 | 15.97986 | 35842 ft | 428 kts | 304° |
| 2026-05-06 12:03 | 48.48361 | 15.90988 | 35846 ft | 428 kts | 304° |
| 2026-05-06 12:04 | 48.52049 | 15.84024 | 35846 ft | 428 kts | 303° |
| 2026-05-06 12:04 | 48.55760 | 15.76999 | 35849 ft | 428 kts | 303° |
| 2026-05-06 12:05 | 48.59462 | 15.69967 | 35849 ft | 428 kts | 303° |
| 2026-05-06 12:05 | 48.63162 | 15.62915 | 35847 ft | 428 kts | 303° |
| 2026-05-06 12:06 | 48.66853 | 15.55867 | 35846 ft | 427 kts | 303° |
| 2026-05-06 12:06 | 48.70518 | 15.48850 | 35843 ft | 427 kts | 303° |
| 2026-05-06 12:07 | 48.74186 | 15.41804 | 35865 ft | 425 kts | 302° |
| 2026-05-06 12:07 | 48.77839 | 15.34787 | 35859 ft | 422 kts | 302° |
| 2026-05-06 12:08 | 48.81454 | 15.27823 | 35845 ft | 420 kts | 302° |
| 2026-05-06 12:08 | 48.85035 | 15.20923 | 35842 ft | 418 kts | 301° |
| 2026-05-06 12:09 | 48.88612 | 15.13968 | 35839 ft | 418 kts | 301° |
| 2026-05-06 12:09 | 48.92206 | 15.07015 | 35829 ft | 419 kts | 302° |
| 2026-05-06 12:10 | 48.95889 | 15.00156 | 35826 ft | 419 kts | 303° |
| 2026-05-06 12:10 | 48.99570 | 14.93340 | 35822 ft | 419 kts | 302° |
| 2026-05-06 12:11 | 49.03249 | 14.86451 | 35817 ft | 419 kts | 302° |
| 2026-05-06 12:11 | 49.06912 | 14.79535 | 35811 ft | 420 kts | 302° |
| 2026-05-06 12:12 | 49.10567 | 14.72602 | 35808 ft | 420 kts | 302° |
| 2026-05-06 12:12 | 49.14204 | 14.65719 | 35809 ft | 420 kts | 302° |
| 2026-05-06 12:13 | 49.17860 | 14.58762 | 35807 ft | 420 kts | 302° |
| 2026-05-06 12:13 | 49.21527 | 14.51775 | 35806 ft | 421 kts | 302° |
| 2026-05-06 12:14 | 49.25192 | 14.44783 | 35803 ft | 421 kts | 302° |
| 2026-05-06 12:14 | 49.28832 | 14.37823 | 35804 ft | 421 kts | 302° |
| 2026-05-06 12:15 | 49.32481 | 14.30801 | 35799 ft | 422 kts | 302° |
| 2026-05-06 12:15 | 49.36133 | 14.23756 | 35797 ft | 422 kts | 302° |
| 2026-05-06 12:16 | 49.39790 | 14.16687 | 35797 ft | 423 kts | 302° |
| 2026-05-06 12:16 | 49.43449 | 14.09605 | 35796 ft | 424 kts | 302° |
| 2026-05-06 12:17 | 49.47115 | 14.02504 | 35793 ft | 424 kts | 302° |
| 2026-05-06 12:17 | 49.50768 | 13.95390 | 35793 ft | 424 kts | 302° |
| 2026-05-06 12:18 | 49.54417 | 13.88253 | 35790 ft | 425 kts | 302° |
| 2026-05-06 12:18 | 49.58074 | 13.81098 | 35793 ft | 425 kts | 302° |
| 2026-05-06 12:19 | 49.61732 | 13.73935 | 35790 ft | 425 kts | 302° |
| 2026-05-06 12:19 | 49.65383 | 13.66764 | 35793 ft | 425 kts | 302° |
| 2026-05-06 12:20 | 49.69031 | 13.59573 | 35794 ft | 425 kts | 301° |
| 2026-05-06 12:20 | 49.72666 | 13.52374 | 35798 ft | 425 kts | 301° |
| 2026-05-06 12:21 | 49.76296 | 13.45168 | 35802 ft | 425 kts | 301° |
| 2026-05-06 12:21 | 49.79923 | 13.37948 | 35802 ft | 425 kts | 301° |
| 2026-05-06 12:22 | 49.83549 | 13.30719 | 35804 ft | 425 kts | 301° |
| 2026-05-06 12:22 | 49.87177 | 13.23473 | 35806 ft | 425 kts | 301° |
| 2026-05-06 12:23 | 49.90789 | 13.16224 | 35811 ft | 425 kts | 301° |
| 2026-05-06 12:23 | 49.94396 | 13.08960 | 35814 ft | 425 kts | 301° |
| 2026-05-06 12:24 | 49.98005 | 13.01684 | 35818 ft | 425 kts | 301° |
| 2026-05-06 12:24 | 50.01613 | 12.94405 | 35818 ft | 425 kts | 301° |
| 2026-05-06 12:25 | 50.05208 | 12.87109 | 35820 ft | 426 kts | 301° |
| 2026-05-06 12:25 | 50.08803 | 12.79793 | 35822 ft | 426 kts | 301° |
| 2026-05-06 12:26 | 50.12399 | 12.72461 | 35824 ft | 426 kts | 301° |
| 2026-05-06 12:26 | 50.15967 | 12.65165 | 35823 ft | 426 kts | 301° |
| 2026-05-06 12:27 | 50.19547 | 12.57810 | 35824 ft | 426 kts | 301° |
| 2026-05-06 12:27 | 50.23129 | 12.50442 | 35823 ft | 426 kts | 301° |
| 2026-05-06 12:28 | 50.26698 | 12.43072 | 35823 ft | 425 kts | 300° |
| 2026-05-06 12:28 | 50.30271 | 12.35691 | 35818 ft | 425 kts | 301° |
| 2026-05-06 12:29 | 50.33870 | 12.28337 | 35816 ft | 426 kts | 301° |
| 2026-05-06 12:29 | 50.37483 | 12.20978 | 35815 ft | 426 kts | 301° |
| 2026-05-06 12:30 | 50.41088 | 12.13610 | 35813 ft | 426 kts | 301° |
| 2026-05-06 12:30 | 50.44682 | 12.06225 | 35814 ft | 426 kts | 301° |
| 2026-05-06 12:31 | 50.48268 | 11.98830 | 35813 ft | 426 kts | 301° |
| 2026-05-06 12:31 | 50.51855 | 11.91418 | 35813 ft | 426 kts | 301° |
| 2026-05-06 12:32 | 50.55429 | 11.84004 | 35807 ft | 426 kts | 300° |
| 2026-05-06 12:32 | 50.58998 | 11.76566 | 35805 ft | 426 kts | 301° |
| 2026-05-06 12:33 | 50.62564 | 11.69109 | 35805 ft | 426 kts | 301° |
| 2026-05-06 12:33 | 50.66134 | 11.61642 | 35800 ft | 427 kts | 301° |
| 2026-05-06 12:34 | 50.69700 | 11.54171 | 35795 ft | 427 kts | 301° |
| 2026-05-06 12:34 | 50.73257 | 11.46686 | 35792 ft | 427 kts | 301° |
| 2026-05-06 12:35 | 50.76819 | 11.39172 | 35791 ft | 428 kts | 301° |
| 2026-05-06 12:35 | 50.80362 | 11.31680 | 35789 ft | 428 kts | 301° |
| 2026-05-06 12:36 | 50.83932 | 11.24142 | 35788 ft | 429 kts | 301° |
| 2026-05-06 12:36 | 50.87498 | 11.16576 | 35783 ft | 429 kts | 301° |
| 2026-05-06 12:37 | 50.91052 | 11.08992 | 35785 ft | 429 kts | 301° |
| 2026-05-06 12:37 | 50.94598 | 11.01386 | 35787 ft | 429 kts | 301° |
| 2026-05-06 12:38 | 50.97562 | 10.95007 | 35786 ft | 429 kts | 301° |
| 2026-05-06 12:38 | 51.01081 | 10.87428 | 35791 ft | 429 kts | 300° |
| 2026-05-06 12:39 | 51.04632 | 10.79738 | 35787 ft | 429 kts | 301° |
| 2026-05-06 12:39 | 51.08132 | 10.72141 | 35783 ft | 429 kts | 300° |
| 2026-05-06 12:40 | 51.11653 | 10.64483 | 35773 ft | 429 kts | 301° |
| 2026-05-06 12:40 | 51.15175 | 10.56809 | 35785 ft | 429 kts | 301° |
| 2026-05-06 12:41 | 51.18696 | 10.49121 | 35781 ft | 429 kts | 301° |
| 2026-05-06 12:41 | 51.22206 | 10.41430 | 35783 ft | 429 kts | 301° |
| 2026-05-06 12:42 | 51.25447 | 10.33507 | 35772 ft | 421 kts | 290° |
| 2026-05-06 12:42 | 51.27591 | 10.24871 | 35767 ft | 419 kts | 286° |
| 2026-05-06 12:43 | 51.29690 | 10.16181 | 35763 ft | 419 kts | 286° |
| 2026-05-06 12:43 | 51.31992 | 10.06658 | 35762 ft | 420 kts | 286° |
| 2026-05-06 12:44 | 51.34083 | 9.97943 | 35761 ft | 420 kts | 286° |